Impacts TAF Board
For situational awareness. Not to be used for flight planning purposes.
IDs:

KCLT - Charlotte/Douglas In, NC, US

Issued at 1952 UTC 08 Feb 2023
Updated at 2121 UTC 08 Feb 2023
Potential Impact None Slight Moderate High
Time2052Z 08/22Z 08/23Z 09/00Z 09/01Z 09/02Z 09/03Z 09/04Z 09/05Z 09/06Z 09/07Z 09/08Z 09/09Z 09/10Z>>
Type OBS PRVL PRVL PRVL PRVL PRVL PRVL PRVL PRVL PRVL PRVL PRVL PRVL PRVL
VIS 10 >6 >6 >6 >6 >6 >6 >6 >6 >6 >6 >6 >6 >6
CIG 95 250 250 250 250 250 250 250 250 100 100 100 100 100
Cover BKN BKN BKN BKN BKN BKN BKN BKN BKN OVC OVC OVC OVC OVC
FltCat VFR VFR VFR VFR VFR VFR VFR VFR VFR VFR VFR VFR VFR VFR
WX -- -- -- -- -- -- -- -- -- -- -- -- -- --
WDir 250 240 240 240 240 240 240 240 240 170 170 170 170 170
WSpd 4 5 5 5 5 5 5 5 5 3 3 3 3 3
WGst -- -- -- -- -- -- -- -- -- -- -- -- -- --
WSHgt -- -- -- -- -- -- -- -- -- -- -- -- -- --
WSDir -- -- -- -- -- -- -- -- -- -- -- -- -- --
WSSpd -- -- -- -- -- -- -- -- -- -- -- -- -- --
R05/23
XWnd 1 1 1 1 1 1 1 1 1 -3 -3 -3 -3 -3
HWnd -4 -5 -5 -5 -5 -5 -5 -5 -5 -2 -2 -2 -2 -2
R18/36
XWnd -4 -4 -4 -4 -4 -4 -4 -4 -4 0 0 0 0 0
HWnd 1 2 2 2 2 2 2 2 2 3 3 3 3 3

NOTE: LAMP data beyond the time of the TAF data is denoted as LAMP in Type and colored magenta.

Raw TAF
KCLT 081952Z 0820/0924 24005KT P6SM SCT060 BKN250
  FM090600 17003KT P6SM FEW050 OVC100
  FM091600 18008KT P6SM OVC025


Raw METAR
KCLT 082052Z COR 25004KT 10SM SCT065 BKN095 BKN220 BKN250 22/08 A3025 RMK AO2 SLP239 T02170078 56014
KCLT 081952Z 25005KT 10SM SCT070 SCT095 BKN210 BKN250 21/07 A3025 RMK AO2 SLP241 T02110067
KCLT 081852Z 25006KT 10SM SCT070 BKN095 BKN200 BKN250 21/06 A3027 RMK AO2 SLP246 T02060061

METAR Board
Radar Display
Forecast Discussion

For situational awareness. Not to be used for flight planning purposes.